sensor_id;sensor_type;location;lat;lon;timestamp;P1;durP1;ratioP1;P2;durP2;ratioP2
9950;SDS011;24074;49.254;6.702;2023-12-22T00:00:37;2.53;;;1.20;;
9950;SDS011;24074;49.254;6.702;2023-12-22T00:03:03;3.70;;;1.43;;
9950;SDS011;24074;49.254;6.702;2023-12-22T00:05:29;5.70;;;1.60;;
9950;SDS011;24074;49.254;6.702;2023-12-22T00:07:54;4.10;;;1.60;;
9950;SDS011;24074;49.254;6.702;2023-12-22T00:10:20;7.70;;;2.20;;
9950;SDS011;24074;49.254;6.702;2023-12-22T00:12:46;6.30;;;2.20;;
9950;SDS011;24074;49.254;6.702;2023-12-22T00:15:11;7.20;;;1.80;;
9950;SDS011;24074;49.254;6.702;2023-12-22T00:17:37;5.97;;;2.00;;
9950;SDS011;24074;49.254;6.702;2023-12-22T00:20:04;4.23;;;1.47;;
9950;SDS011;24074;49.254;6.702;2023-12-22T00:22:30;7.03;;;1.70;;
9950;SDS011;24074;49.254;6.702;2023-12-22T00:24:55;4.73;;;1.73;;
9950;SDS011;24074;49.254;6.702;2023-12-22T00:27:21;5.37;;;1.67;;
9950;SDS011;24074;49.254;6.702;2023-12-22T00:29:46;5.57;;;2.20;;
9950;SDS011;24074;49.254;6.702;2023-12-22T00:32:12;6.33;;;2.00;;
9950;SDS011;24074;49.254;6.702;2023-12-22T00:34:38;7.23;;;1.90;;
9950;SDS011;24074;49.254;6.702;2023-12-22T00:37:03;7.67;;;2.10;;
9950;SDS011;24074;49.254;6.702;2023-12-22T00:39:29;4.57;;;1.97;;
9950;SDS011;24074;49.254;6.702;2023-12-22T00:41:56;5.27;;;1.67;;
9950;SDS011;24074;49.254;6.702;2023-12-22T00:44:21;5.27;;;2.07;;
9950;SDS011;24074;49.254;6.702;2023-12-22T00:46:47;6.07;;;2.37;;
9950;SDS011;24074;49.254;6.702;2023-12-22T00:49:13;4.93;;;2.13;;
9950;SDS011;24074;49.254;6.702;2023-12-22T00:51:38;6.03;;;2.40;;
9950;SDS011;24074;49.254;6.702;2023-12-22T00:54:04;7.97;;;2.37;;
9950;SDS011;24074;49.254;6.702;2023-12-22T00:56:29;6.33;;;2.00;;
9950;SDS011;24074;49.254;6.702;2023-12-22T00:58:55;5.03;;;2.10;;
9950;SDS011;24074;49.254;6.702;2023-12-22T01:01:21;2.90;;;1.90;;
9950;SDS011;24074;49.254;6.702;2023-12-22T01:03:46;3.70;;;1.43;;
9950;SDS011;24074;49.254;6.702;2023-12-22T01:06:12;4.93;;;1.47;;
9950;SDS011;24074;49.254;6.702;2023-12-22T01:08:39;3.57;;;1.50;;
9950;SDS011;24074;49.254;6.702;2023-12-22T01:11:04;5.40;;;1.40;;
9950;SDS011;24074;49.254;6.702;2023-12-22T01:13:30;2.17;;;1.10;;
9950;SDS011;24074;49.254;6.702;2023-12-22T01:15:56;3.23;;;1.10;;
9950;SDS011;24074;49.254;6.702;2023-12-22T01:18:21;1.77;;;0.97;;
9950;SDS011;24074;49.254;6.702;2023-12-22T01:20:47;2.40;;;1.00;;
9950;SDS011;24074;49.254;6.702;2023-12-22T01:23:14;2.20;;;1.00;;
9950;SDS011;24074;49.254;6.702;2023-12-22T01:25:39;3.07;;;1.27;;
9950;SDS011;24074;49.254;6.702;2023-12-22T01:28:05;2.87;;;1.20;;
9950;SDS011;24074;49.254;6.702;2023-12-22T01:30:30;3.13;;;0.90;;
9950;SDS011;24074;49.254;6.702;2023-12-22T01:32:56;1.57;;;1.10;;
9950;SDS011;24074;49.254;6.702;2023-12-22T01:35:22;6.27;;;1.80;;
9950;SDS011;24074;49.254;6.702;2023-12-22T01:37:47;49.30;;;31.33;;
9950;SDS011;24074;49.254;6.702;2023-12-22T01:40:14;88.83;;;47.73;;
9950;SDS011;24074;49.254;6.702;2023-12-22T01:42:39;131.83;;;78.13;;
9950;SDS011;24074;49.254;6.702;2023-12-22T01:45:05;10.97;;;6.80;;
9950;SDS011;24074;49.254;6.702;2023-12-22T01:47:31;6.10;;;3.00;;
9950;SDS011;24074;49.254;6.702;2023-12-22T01:49:57;6.77;;;4.57;;
9950;SDS011;24074;49.254;6.702;2023-12-22T01:52:24;8.60;;;5.80;;
9950;SDS011;24074;49.254;6.702;2023-12-22T01:54:50;8.47;;;3.20;;
9950;SDS011;24074;49.254;6.702;2023-12-22T01:57:16;8.60;;;2.20;;
9950;SDS011;24074;49.254;6.702;2023-12-22T01:59:44;6.27;;;2.30;;
9950;SDS011;24074;49.254;6.702;2023-12-22T02:02:11;8.93;;;3.57;;
9950;SDS011;24074;49.254;6.702;2023-12-22T02:04:37;7.30;;;2.40;;
9950;SDS011;24074;49.254;6.702;2023-12-22T02:07:02;7.03;;;2.57;;
9950;SDS011;24074;49.254;6.702;2023-12-22T02:09:30;8.30;;;2.97;;
9950;SDS011;24074;49.254;6.702;2023-12-22T02:11:55;7.97;;;2.87;;
9950;SDS011;24074;49.254;6.702;2023-12-22T02:14:21;8.90;;;2.43;;
9950;SDS011;24074;49.254;6.702;2023-12-22T02:17:05;8.13;;;2.60;;
9950;SDS011;24074;49.254;6.702;2023-12-22T02:19:51;7.53;;;2.40;;
9950;SDS011;24074;49.254;6.702;2023-12-22T02:22:18;7.37;;;2.00;;
9950;SDS011;24074;49.254;6.702;2023-12-22T02:24:44;6.90;;;2.00;;
9950;SDS011;24074;49.254;6.702;2023-12-22T02:29:48;7.73;;;2.40;;
9950;SDS011;24074;49.254;6.702;2023-12-22T02:32:40;6.57;;;2.03;;
9950;SDS011;24074;49.254;6.702;2023-12-22T02:35:08;6.23;;;1.80;;
9950;SDS011;24074;49.254;6.702;2023-12-22T02:37:36;5.77;;;2.10;;
9950;SDS011;24074;49.254;6.702;2023-12-22T02:40:04;8.80;;;2.27;;
9950;SDS011;24074;49.254;6.702;2023-12-22T02:42:31;5.60;;;2.07;;
9950;SDS011;24074;49.254;6.702;2023-12-22T02:44:58;8.27;;;2.63;;
9950;SDS011;24074;49.254;6.702;2023-12-22T02:47:24;5.77;;;2.17;;
9950;SDS011;24074;49.254;6.702;2023-12-22T02:49:50;8.50;;;1.90;;
9950;SDS011;24074;49.254;6.702;2023-12-22T02:52:15;10.33;;;2.80;;
9950;SDS011;24074;49.254;6.702;2023-12-22T02:54:41;7.60;;;3.10;;
9950;SDS011;24074;49.254;6.702;2023-12-22T02:57:07;7.00;;;2.70;;
9950;SDS011;24074;49.254;6.702;2023-12-22T02:59:33;7.60;;;3.23;;
9950;SDS011;24074;49.254;6.702;2023-12-22T03:01:58;12.87;;;2.77;;
9950;SDS011;24074;49.254;6.702;2023-12-22T03:04:24;10.20;;;2.53;;
9950;SDS011;24074;49.254;6.702;2023-12-22T03:06:49;9.87;;;2.80;;
9950;SDS011;24074;49.254;6.702;2023-12-22T03:09:15;9.73;;;2.60;;
9950;SDS011;24074;49.254;6.702;2023-12-22T03:11:43;9.53;;;2.83;;
9950;SDS011;24074;49.254;6.702;2023-12-22T03:14:09;8.73;;;2.67;;
9950;SDS011;24074;49.254;6.702;2023-12-22T03:16:35;9.70;;;3.33;;
9950;SDS011;24074;49.254;6.702;2023-12-22T03:19:00;11.97;;;3.30;;
9950;SDS011;24074;49.254;6.702;2023-12-22T03:21:26;9.27;;;2.97;;
9950;SDS011;24074;49.254;6.702;2023-12-22T03:23:52;10.33;;;2.67;;
9950;SDS011;24074;49.254;6.702;2023-12-22T03:26:17;9.87;;;2.80;;
9950;SDS011;24074;49.254;6.702;2023-12-22T03:28:43;10.57;;;3.17;;
9950;SDS011;24074;49.254;6.702;2023-12-22T03:31:08;13.93;;;2.87;;
9950;SDS011;24074;49.254;6.702;2023-12-22T03:33:34;15.73;;;3.07;;
9950;SDS011;24074;49.254;6.702;2023-12-22T03:35:59;13.67;;;3.60;;
9950;SDS011;24074;49.254;6.702;2023-12-22T03:38:25;10.00;;;3.10;;
9950;SDS011;24074;49.254;6.702;2023-12-22T03:40:50;11.83;;;2.80;;
9950;SDS011;24074;49.254;6.702;2023-12-22T03:43:16;11.40;;;3.00;;
9950;SDS011;24074;49.254;6.702;2023-12-22T03:45:42;13.97;;;3.33;;
9950;SDS011;24074;49.254;6.702;2023-12-22T03:48:07;13.70;;;3.17;;
9950;SDS011;24074;49.254;6.702;2023-12-22T03:50:33;10.67;;;2.80;;
9950;SDS011;24074;49.254;6.702;2023-12-22T03:52:58;10.07;;;2.67;;
9950;SDS011;24074;49.254;6.702;2023-12-22T03:55:24;8.60;;;2.57;;
9950;SDS011;24074;49.254;6.702;2023-12-22T03:57:49;9.40;;;2.60;;
9950;SDS011;24074;49.254;6.702;2023-12-22T04:00:15;10.87;;;2.57;;
9950;SDS011;24074;49.254;6.702;2023-12-22T04:02:41;8.90;;;2.60;;
9950;SDS011;24074;49.254;6.702;2023-12-22T04:05:07;7.40;;;2.23;;
9950;SDS011;24074;49.254;6.702;2023-12-22T04:07:32;11.17;;;2.93;;
9950;SDS011;24074;49.254;6.702;2023-12-22T04:09:58;7.67;;;1.97;;
9950;SDS011;24074;49.254;6.702;2023-12-22T04:12:24;9.20;;;2.20;;
9950;SDS011;24074;49.254;6.702;2023-12-22T04:14:49;9.77;;;2.37;;
9950;SDS011;24074;49.254;6.702;2023-12-22T04:17:15;9.03;;;2.60;;
9950;SDS011;24074;49.254;6.702;2023-12-22T04:19:40;7.53;;;2.47;;
9950;SDS011;24074;49.254;6.702;2023-12-22T04:22:06;12.73;;;3.17;;
9950;SDS011;24074;49.254;6.702;2023-12-22T04:24:31;12.63;;;2.40;;
9950;SDS011;24074;49.254;6.702;2023-12-22T04:26:57;12.87;;;2.80;;
9950;SDS011;24074;49.254;6.702;2023-12-22T04:29:24;11.53;;;2.87;;
9950;SDS011;24074;49.254;6.702;2023-12-22T04:31:49;11.97;;;2.70;;
9950;SDS011;24074;49.254;6.702;2023-12-22T04:34:15;6.77;;;2.30;;
9950;SDS011;24074;49.254;6.702;2023-12-22T04:36:43;10.10;;;2.90;;
9950;SDS011;24074;49.254;6.702;2023-12-22T04:39:09;10.93;;;2.43;;
9950;SDS011;24074;49.254;6.702;2023-12-22T04:41:35;9.50;;;2.73;;
9950;SDS011;24074;49.254;6.702;2023-12-22T04:44:00;9.50;;;2.50;;
9950;SDS011;24074;49.254;6.702;2023-12-22T04:46:29;12.77;;;2.67;;
9950;SDS011;24074;49.254;6.702;2023-12-22T04:48:55;13.27;;;3.13;;
9950;SDS011;24074;49.254;6.702;2023-12-22T04:51:21;9.43;;;3.17;;
9950;SDS011;24074;49.254;6.702;2023-12-22T04:53:46;12.87;;;2.90;;
9950;SDS011;24074;49.254;6.702;2023-12-22T04:56:12;11.00;;;2.40;;
9950;SDS011;24074;49.254;6.702;2023-12-22T04:58:37;7.03;;;2.37;;
9950;SDS011;24074;49.254;6.702;2023-12-22T05:01:03;15.93;;;3.70;;
9950;SDS011;24074;49.254;6.702;2023-12-22T05:03:28;14.47;;;3.07;;
9950;SDS011;24074;49.254;6.702;2023-12-22T05:05:54;10.13;;;3.00;;
9950;SDS011;24074;49.254;6.702;2023-12-22T05:08:20;10.03;;;2.60;;
9950;SDS011;24074;49.254;6.702;2023-12-22T05:10:45;9.40;;;2.67;;
9950;SDS011;24074;49.254;6.702;2023-12-22T05:13:11;11.00;;;2.87;;
9950;SDS011;24074;49.254;6.702;2023-12-22T05:15:36;8.67;;;2.37;;
9950;SDS011;24074;49.254;6.702;2023-12-22T05:18:02;11.07;;;2.90;;
9950;SDS011;24074;49.254;6.702;2023-12-22T05:20:28;11.80;;;3.57;;
9950;SDS011;24074;49.254;6.702;2023-12-22T05:22:54;11.47;;;3.97;;
9950;SDS011;24074;49.254;6.702;2023-12-22T05:25:19;15.27;;;4.03;;
9950;SDS011;24074;49.254;6.702;2023-12-22T05:27:45;15.13;;;4.50;;
9950;SDS011;24074;49.254;6.702;2023-12-22T05:30:11;14.40;;;4.53;;
9950;SDS011;24074;49.254;6.702;2023-12-22T05:32:37;9.10;;;3.43;;
9950;SDS011;24074;49.254;6.702;2023-12-22T05:35:02;12.23;;;3.70;;
9950;SDS011;24074;49.254;6.702;2023-12-22T05:37:28;10.77;;;3.27;;
9950;SDS011;24074;49.254;6.702;2023-12-22T05:39:54;12.93;;;3.50;;
9950;SDS011;24074;49.254;6.702;2023-12-22T05:42:20;12.57;;;3.10;;
9950;SDS011;24074;49.254;6.702;2023-12-22T05:44:46;11.73;;;3.20;;
9950;SDS011;24074;49.254;6.702;2023-12-22T05:47:14;10.53;;;2.87;;
9950;SDS011;24074;49.254;6.702;2023-12-22T05:49:43;11.13;;;2.97;;
9950;SDS011;24074;49.254;6.702;2023-12-22T05:52:09;11.73;;;2.90;;
9950;SDS011;24074;49.254;6.702;2023-12-22T05:54:35;7.67;;;2.87;;
9950;SDS011;24074;49.254;6.702;2023-12-22T05:57:02;12.27;;;3.63;;
9950;SDS011;24074;49.254;6.702;2023-12-22T05:59:30;13.97;;;3.23;;
9950;SDS011;24074;49.254;6.702;2023-12-22T06:01:57;12.33;;;3.37;;
9950;SDS011;24074;49.254;6.702;2023-12-22T06:04:26;11.87;;;3.23;;
9950;SDS011;24074;49.254;6.702;2023-12-22T06:06:52;11.23;;;3.27;;
9950;SDS011;24074;49.254;6.702;2023-12-22T06:09:17;13.80;;;3.30;;
9950;SDS011;24074;49.254;6.702;2023-12-22T06:11:47;11.60;;;3.70;;
9950;SDS011;24074;49.254;6.702;2023-12-22T06:14:13;16.20;;;3.97;;
9950;SDS011;24074;49.254;6.702;2023-12-22T06:16:38;12.63;;;3.07;;
9950;SDS011;24074;49.254;6.702;2023-12-22T06:19:04;12.83;;;3.03;;
9950;SDS011;24074;49.254;6.702;2023-12-22T06:21:30;11.67;;;3.73;;
9950;SDS011;24074;49.254;6.702;2023-12-22T06:23:56;10.80;;;3.03;;
9950;SDS011;24074;49.254;6.702;2023-12-22T06:26:21;13.77;;;3.80;;
9950;SDS011;24074;49.254;6.702;2023-12-22T06:28:47;14.40;;;3.93;;
9950;SDS011;24074;49.254;6.702;2023-12-22T06:31:16;16.07;;;4.00;;
9950;SDS011;24074;49.254;6.702;2023-12-22T06:33:47;11.47;;;4.03;;
9950;SDS011;24074;49.254;6.702;2023-12-22T06:38:45;12.03;;;3.80;;
9950;SDS011;24074;49.254;6.702;2023-12-22T06:41:18;10.30;;;3.53;;
9950;SDS011;24074;49.254;6.702;2023-12-22T06:43:50;13.93;;;3.40;;
9950;SDS011;24074;49.254;6.702;2023-12-22T06:46:17;13.47;;;3.90;;
9950;SDS011;24074;49.254;6.702;2023-12-22T06:48:43;14.13;;;3.47;;
9950;SDS011;24074;49.254;6.702;2023-12-22T06:51:16;12.37;;;3.90;;
9950;SDS011;24074;49.254;6.702;2023-12-22T06:53:43;10.53;;;3.30;;
9950;SDS011;24074;49.254;6.702;2023-12-22T06:58:43;14.03;;;4.53;;
9950;SDS011;24074;49.254;6.702;2023-12-22T07:01:19;13.33;;;3.80;;
9950;SDS011;24074;49.254;6.702;2023-12-22T07:03:49;18.53;;;4.23;;
9950;SDS011;24074;49.254;6.702;2023-12-22T07:06:16;15.93;;;4.23;;
9950;SDS011;24074;49.254;6.702;2023-12-22T07:08:42;16.03;;;4.10;;
9950;SDS011;24074;49.254;6.702;2023-12-22T07:11:08;14.40;;;3.80;;
9950;SDS011;24074;49.254;6.702;2023-12-22T07:13:37;14.97;;;3.97;;
9950;SDS011;24074;49.254;6.702;2023-12-22T07:16:03;14.57;;;3.90;;
9950;SDS011;24074;49.254;6.702;2023-12-22T07:18:30;18.53;;;4.10;;
9950;SDS011;24074;49.254;6.702;2023-12-22T07:20:59;15.87;;;3.80;;
9950;SDS011;24074;49.254;6.702;2023-12-22T07:23:25;15.77;;;4.17;;
9950;SDS011;24074;49.254;6.702;2023-12-22T07:25:50;16.37;;;3.80;;
9950;SDS011;24074;49.254;6.702;2023-12-22T07:28:16;15.37;;;4.53;;
9950;SDS011;24074;49.254;6.702;2023-12-22T07:30:41;16.30;;;4.60;;
9950;SDS011;24074;49.254;6.702;2023-12-22T07:33:07;15.63;;;3.90;;
9950;SDS011;24074;49.254;6.702;2023-12-22T07:35:33;16.97;;;4.10;;
9950;SDS011;24074;49.254;6.702;2023-12-22T07:37:59;13.87;;;3.63;;
9950;SDS011;24074;49.254;6.702;2023-12-22T07:40:25;16.77;;;4.23;;
9950;SDS011;24074;49.254;6.702;2023-12-22T07:42:50;15.43;;;4.00;;
9950;SDS011;24074;49.254;6.702;2023-12-22T07:45:16;16.93;;;3.90;;
9950;SDS011;24074;49.254;6.702;2023-12-22T07:47:41;17.53;;;4.00;;
9950;SDS011;24074;49.254;6.702;2023-12-22T07:50:07;14.60;;;4.17;;
9950;SDS011;24074;49.254;6.702;2023-12-22T07:52:36;14.17;;;4.27;;
9950;SDS011;24074;49.254;6.702;2023-12-22T07:55:05;18.37;;;5.17;;
9950;SDS011;24074;49.254;6.702;2023-12-22T07:57:37;14.50;;;4.30;;
9950;SDS011;24074;49.254;6.702;2023-12-22T08:00:04;15.33;;;4.77;;
9950;SDS011;24074;49.254;6.702;2023-12-22T08:02:30;18.00;;;4.10;;
9950;SDS011;24074;49.254;6.702;2023-12-22T08:04:56;17.47;;;4.00;;
9950;SDS011;24074;49.254;6.702;2023-12-22T08:07:22;13.97;;;4.17;;
9950;SDS011;24074;49.254;6.702;2023-12-22T08:09:47;14.37;;;3.93;;
9950;SDS011;24074;49.254;6.702;2023-12-22T08:12:13;16.37;;;4.17;;
9950;SDS011;24074;49.254;6.702;2023-12-22T08:14:39;18.50;;;4.03;;
9950;SDS011;24074;49.254;6.702;2023-12-22T08:17:04;20.40;;;4.90;;
9950;SDS011;24074;49.254;6.702;2023-12-22T08:19:30;11.33;;;3.37;;
9950;SDS011;24074;49.254;6.702;2023-12-22T08:21:56;14.27;;;3.63;;
9950;SDS011;24074;49.254;6.702;2023-12-22T08:24:21;12.17;;;3.60;;
9950;SDS011;24074;49.254;6.702;2023-12-22T08:26:47;16.60;;;3.77;;
9950;SDS011;24074;49.254;6.702;2023-12-22T08:29:13;17.27;;;3.80;;
9950;SDS011;24074;49.254;6.702;2023-12-22T08:31:40;13.70;;;3.60;;
9950;SDS011;24074;49.254;6.702;2023-12-22T08:34:06;12.03;;;3.80;;
9950;SDS011;24074;49.254;6.702;2023-12-22T08:36:32;14.77;;;3.53;;
9950;SDS011;24074;49.254;6.702;2023-12-22T08:38:57;15.77;;;3.57;;
9950;SDS011;24074;49.254;6.702;2023-12-22T08:41:23;11.80;;;3.37;;
9950;SDS011;24074;49.254;6.702;2023-12-22T08:43:49;15.33;;;3.90;;
9950;SDS011;24074;49.254;6.702;2023-12-22T08:46:15;15.40;;;4.00;;
9950;SDS011;24074;49.254;6.702;2023-12-22T08:48:41;19.03;;;3.80;;
9950;SDS011;24074;49.254;6.702;2023-12-22T08:51:07;14.23;;;3.77;;
9950;SDS011;24074;49.254;6.702;2023-12-22T08:53:33;14.83;;;3.97;;
9950;SDS011;24074;49.254;6.702;2023-12-22T08:56:02;13.80;;;3.60;;
9950;SDS011;24074;49.254;6.702;2023-12-22T08:58:28;14.47;;;3.47;;
9950;SDS011;24074;49.254;6.702;2023-12-22T09:00:54;10.93;;;3.30;;
9950;SDS011;24074;49.254;6.702;2023-12-22T09:03:20;13.90;;;3.23;;
9950;SDS011;24074;49.254;6.702;2023-12-22T09:05:46;15.57;;;3.50;;
9950;SDS011;24074;49.254;6.702;2023-12-22T09:08:12;14.23;;;3.73;;
9950;SDS011;24074;49.254;6.702;2023-12-22T09:10:38;12.83;;;3.50;;
9950;SDS011;24074;49.254;6.702;2023-12-22T09:13:03;12.20;;;3.43;;
9950;SDS011;24074;49.254;6.702;2023-12-22T09:15:29;11.60;;;3.17;;
9950;SDS011;24074;49.254;6.702;2023-12-22T09:17:55;8.07;;;2.60;;
9950;SDS011;24074;49.254;6.702;2023-12-22T09:20:21;9.10;;;2.50;;
9950;SDS011;24074;49.254;6.702;2023-12-22T09:22:47;12.03;;;2.93;;
9950;SDS011;24074;49.254;6.702;2023-12-22T09:25:13;11.70;;;2.50;;
9950;SDS011;24074;49.254;6.702;2023-12-22T09:27:39;9.33;;;2.63;;
9950;SDS011;24074;49.254;6.702;2023-12-22T09:30:04;10.97;;;2.93;;
9950;SDS011;24074;49.254;6.702;2023-12-22T09:32:32;5.93;;;2.83;;
9950;SDS011;24074;49.254;6.702;2023-12-22T09:34:57;9.23;;;2.63;;
9950;SDS011;24074;49.254;6.702;2023-12-22T09:37:25;6.67;;;2.33;;
9950;SDS011;24074;49.254;6.702;2023-12-22T09:39:51;9.20;;;2.93;;
9950;SDS011;24074;49.254;6.702;2023-12-22T09:42:16;8.80;;;2.27;;
9950;SDS011;24074;49.254;6.702;2023-12-22T09:44:42;7.40;;;2.30;;
9950;SDS011;24074;49.254;6.702;2023-12-22T09:47:08;7.93;;;2.30;;
9950;SDS011;24074;49.254;6.702;2023-12-22T09:49:37;10.43;;;2.40;;
9950;SDS011;24074;49.254;6.702;2023-12-22T09:52:03;8.03;;;2.37;;
9950;SDS011;24074;49.254;6.702;2023-12-22T09:54:31;7.00;;;2.30;;
9950;SDS011;24074;49.254;6.702;2023-12-22T09:56:57;9.67;;;2.47;;
9950;SDS011;24074;49.254;6.702;2023-12-22T09:59:24;6.23;;;2.17;;
9950;SDS011;24074;49.254;6.702;2023-12-22T10:01:52;7.77;;;2.10;;
9950;SDS011;24074;49.254;6.702;2023-12-22T10:04:19;6.37;;;1.83;;
9950;SDS011;24074;49.254;6.702;2023-12-22T10:06:46;7.70;;;1.87;;
9950;SDS011;24074;49.254;6.702;2023-12-22T10:09:13;7.97;;;2.10;;
9950;SDS011;24074;49.254;6.702;2023-12-22T10:11:43;5.00;;;1.80;;
9950;SDS011;24074;49.254;6.702;2023-12-22T10:14:09;6.23;;;1.90;;
9950;SDS011;24074;49.254;6.702;2023-12-22T10:16:35;7.57;;;1.80;;
9950;SDS011;24074;49.254;6.702;2023-12-22T10:19:02;6.37;;;1.80;;
9950;SDS011;24074;49.254;6.702;2023-12-22T10:21:28;6.23;;;1.90;;
9950;SDS011;24074;49.254;6.702;2023-12-22T10:23:56;6.20;;;1.67;;
9950;SDS011;24074;49.254;6.702;2023-12-22T10:26:22;5.67;;;1.83;;
9950;SDS011;24074;49.254;6.702;2023-12-22T10:28:47;5.97;;;1.90;;
9950;SDS011;24074;49.254;6.702;2023-12-22T10:31:17;5.13;;;1.70;;
9950;SDS011;24074;49.254;6.702;2023-12-22T10:33:43;5.53;;;1.90;;
9950;SDS011;24074;49.254;6.702;2023-12-22T10:36:09;5.60;;;1.70;;
9950;SDS011;24074;49.254;6.702;2023-12-22T10:38:35;3.33;;;1.30;;
9950;SDS011;24074;49.254;6.702;2023-12-22T10:41:04;3.73;;;1.40;;
9950;SDS011;24074;49.254;6.702;2023-12-22T10:43:31;3.30;;;1.30;;
9950;SDS011;24074;49.254;6.702;2023-12-22T10:46:03;4.87;;;1.30;;
9950;SDS011;24074;49.254;6.702;2023-12-22T10:48:29;3.93;;;1.50;;
9950;SDS011;24074;49.254;6.702;2023-12-22T10:50:54;4.50;;;1.57;;
9950;SDS011;24074;49.254;6.702;2023-12-22T10:53:21;3.10;;;1.27;;
9950;SDS011;24074;49.254;6.702;2023-12-22T10:55:46;5.43;;;1.60;;
9950;SDS011;24074;49.254;6.702;2023-12-22T10:58:15;3.70;;;1.70;;
9950;SDS011;24074;49.254;6.702;2023-12-22T11:00:41;3.57;;;1.70;;
9950;SDS011;24074;49.254;6.702;2023-12-22T11:03:11;4.07;;;1.70;;
9950;SDS011;24074;49.254;6.702;2023-12-22T11:05:42;3.87;;;1.50;;
9950;SDS011;24074;49.254;6.702;2023-12-22T11:08:11;2.30;;;1.33;;
9950;SDS011;24074;49.254;6.702;2023-12-22T11:10:38;3.03;;;1.60;;
9950;SDS011;24074;49.254;6.702;2023-12-22T11:13:07;1.70;;;1.10;;
9950;SDS011;24074;49.254;6.702;2023-12-22T11:15:34;3.67;;;1.30;;
9950;SDS011;24074;49.254;6.702;2023-12-22T11:18:01;1.97;;;1.30;;
9950;SDS011;24074;49.254;6.702;2023-12-22T11:20:29;2.60;;;1.37;;
9950;SDS011;24074;49.254;6.702;2023-12-22T11:22:57;3.30;;;1.67;;
9950;SDS011;24074;49.254;6.702;2023-12-22T11:25:25;2.87;;;1.57;;
9950;SDS011;24074;49.254;6.702;2023-12-22T11:27:52;2.17;;;1.40;;
9950;SDS011;24074;49.254;6.702;2023-12-22T11:30:20;3.27;;;1.10;;
9950;SDS011;24074;49.254;6.702;2023-12-22T11:32:47;1.47;;;1.10;;
9950;SDS011;24074;49.254;6.702;2023-12-22T11:35:15;1.20;;;1.10;;
9950;SDS011;24074;49.254;6.702;2023-12-22T11:37:42;1.67;;;1.10;;
9950;SDS011;24074;49.254;6.702;2023-12-22T11:40:09;2.30;;;1.60;;
9950;SDS011;24074;49.254;6.702;2023-12-22T11:42:37;3.37;;;1.60;;
9950;SDS011;24074;49.254;6.702;2023-12-22T11:45:11;2.97;;;1.53;;
9950;SDS011;24074;49.254;6.702;2023-12-22T11:47:38;3.23;;;1.00;;
9950;SDS011;24074;49.254;6.702;2023-12-22T11:50:08;1.53;;;1.00;;
9950;SDS011;24074;49.254;6.702;2023-12-22T11:52:35;2.10;;;1.10;;
9950;SDS011;24074;49.254;6.702;2023-12-22T11:55:01;1.87;;;1.00;;
9950;SDS011;24074;49.254;6.702;2023-12-22T11:59:56;2.07;;;1.20;;
9950;SDS011;24074;49.254;6.702;2023-12-22T12:02:29;1.67;;;0.93;;
9950;SDS011;24074;49.254;6.702;2023-12-22T12:04:57;1.60;;;1.10;;
9950;SDS011;24074;49.254;6.702;2023-12-22T12:07:44;2.93;;;0.93;;
9950;SDS011;24074;49.254;6.702;2023-12-22T12:10:11;2.60;;;1.17;;
9950;SDS011;24074;49.254;6.702;2023-12-22T12:12:39;1.53;;;0.90;;
9950;SDS011;24074;49.254;6.702;2023-12-22T12:15:13;2.33;;;1.90;;
9950;SDS011;24074;49.254;6.702;2023-12-22T12:17:43;3.23;;;1.90;;
9950;SDS011;24074;49.254;6.702;2023-12-22T12:20:09;2.97;;;1.43;;
9950;SDS011;24074;49.254;6.702;2023-12-22T12:22:36;2.00;;;1.03;;
9950;SDS011;24074;49.254;6.702;2023-12-22T12:25:06;1.80;;;0.90;;
9950;SDS011;24074;49.254;6.702;2023-12-22T12:27:36;1.23;;;0.90;;
9950;SDS011;24074;49.254;6.702;2023-12-22T12:30:06;3.17;;;0.90;;
9950;SDS011;24074;49.254;6.702;2023-12-22T12:32:36;1.70;;;1.10;;
9950;SDS011;24074;49.254;6.702;2023-12-22T12:35:02;1.80;;;0.93;;
9950;SDS011;24074;49.254;6.702;2023-12-22T12:37:31;1.07;;;0.93;;
9950;SDS011;24074;49.254;6.702;2023-12-22T12:39:57;2.07;;;0.80;;
9950;SDS011;24074;49.254;6.702;2023-12-22T12:42:27;1.77;;;0.90;;
9950;SDS011;24074;49.254;6.702;2023-12-22T12:44:55;2.10;;;0.77;;
9950;SDS011;24074;49.254;6.702;2023-12-22T12:47:21;1.47;;;1.30;;
9950;SDS011;24074;49.254;6.702;2023-12-22T12:49:46;2.00;;;0.83;;
9950;SDS011;24074;49.254;6.702;2023-12-22T12:52:21;0.97;;;0.83;;
9950;SDS011;24074;49.254;6.702;2023-12-22T12:54:46;3.30;;;1.10;;
9950;SDS011;24074;49.254;6.702;2023-12-22T12:57:15;1.00;;;0.90;;
9950;SDS011;24074;49.254;6.702;2023-12-22T12:59:44;2.50;;;2.10;;
9950;SDS011;24074;49.254;6.702;2023-12-22T13:02:14;3.37;;;2.80;;
9950;SDS011;24074;49.254;6.702;2023-12-22T13:04:41;2.30;;;2.10;;
9950;SDS011;24074;49.254;6.702;2023-12-22T13:07:07;1.77;;;1.30;;
9950;SDS011;24074;49.254;6.702;2023-12-22T13:09:35;1.40;;;0.80;;
9950;SDS011;24074;49.254;6.702;2023-12-22T13:12:01;1.97;;;0.80;;
9950;SDS011;24074;49.254;6.702;2023-12-22T13:14:28;2.07;;;1.20;;
9950;SDS011;24074;49.254;6.702;2023-12-22T13:16:54;3.50;;;0.90;;
9950;SDS011;24074;49.254;6.702;2023-12-22T13:19:24;1.13;;;0.70;;
9950;SDS011;24074;49.254;6.702;2023-12-22T13:21:51;2.70;;;1.53;;
9950;SDS011;24074;49.254;6.702;2023-12-22T13:24:19;1.77;;;0.83;;
9950;SDS011;24074;49.254;6.702;2023-12-22T13:26:45;1.40;;;0.97;;
9950;SDS011;24074;49.254;6.702;2023-12-22T13:29:12;1.20;;;1.00;;
9950;SDS011;24074;49.254;6.702;2023-12-22T13:31:38;3.33;;;1.67;;
9950;SDS011;24074;49.254;6.702;2023-12-22T13:34:12;2.67;;;1.70;;
9950;SDS011;24074;49.254;6.702;2023-12-22T13:36:38;3.07;;;1.93;;
9950;SDS011;24074;49.254;6.702;2023-12-22T13:39:09;2.43;;;1.63;;
9950;SDS011;24074;49.254;6.702;2023-12-22T13:41:40;3.27;;;1.50;;
9950;SDS011;24074;49.254;6.702;2023-12-22T13:44:10;2.93;;;1.80;;
9950;SDS011;24074;49.254;6.702;2023-12-22T13:46:36;2.30;;;2.00;;
9950;SDS011;24074;49.254;6.702;2023-12-22T13:49:05;3.83;;;3.47;;
9950;SDS011;24074;49.254;6.702;2023-12-22T13:51:42;2.70;;;2.50;;
9950;SDS011;24074;49.254;6.702;2023-12-22T13:54:09;6.27;;;5.87;;
9950;SDS011;24074;49.254;6.702;2023-12-22T13:56:35;2.13;;;1.73;;
9950;SDS011;24074;49.254;6.702;2023-12-22T13:59:02;7.43;;;6.83;;
9950;SDS011;24074;49.254;6.702;2023-12-22T14:01:29;6.13;;;5.63;;
9950;SDS011;24074;49.254;6.702;2023-12-22T14:03:55;17.97;;;15.00;;
9950;SDS011;24074;49.254;6.702;2023-12-22T14:06:22;24.83;;;22.17;;
9950;SDS011;24074;49.254;6.702;2023-12-22T14:08:49;10.70;;;9.60;;
9950;SDS011;24074;49.254;6.702;2023-12-22T14:11:14;13.90;;;11.47;;
9950;SDS011;24074;49.254;6.702;2023-12-22T14:13:40;6.83;;;5.27;;
9950;SDS011;24074;49.254;6.702;2023-12-22T14:16:06;36.30;;;26.30;;
9950;SDS011;24074;49.254;6.702;2023-12-22T14:18:32;4.17;;;3.13;;
9950;SDS011;24074;49.254;6.702;2023-12-22T14:20:58;7.17;;;5.90;;
9950;SDS011;24074;49.254;6.702;2023-12-22T14:23:26;9.33;;;8.33;;
9950;SDS011;24074;49.254;6.702;2023-12-22T14:25:52;5.10;;;2.60;;
9950;SDS011;24074;49.254;6.702;2023-12-22T14:28:18;5.80;;;3.47;;
9950;SDS011;24074;49.254;6.702;2023-12-22T14:30:44;5.70;;;3.70;;
9950;SDS011;24074;49.254;6.702;2023-12-22T14:33:10;11.43;;;10.20;;
9950;SDS011;24074;49.254;6.702;2023-12-22T14:35:35;6.40;;;3.80;;
9950;SDS011;24074;49.254;6.702;2023-12-22T14:38:01;8.00;;;4.67;;
9950;SDS011;24074;49.254;6.702;2023-12-22T14:40:27;4.47;;;2.63;;
9950;SDS011;24074;49.254;6.702;2023-12-22T14:42:53;7.60;;;4.70;;
9950;SDS011;24074;49.254;6.702;2023-12-22T14:45:18;7.13;;;4.10;;
9950;SDS011;24074;49.254;6.702;2023-12-22T14:47:44;6.67;;;4.73;;
9950;SDS011;24074;49.254;6.702;2023-12-22T14:50:09;9.53;;;6.40;;
9950;SDS011;24074;49.254;6.702;2023-12-22T14:52:35;7.40;;;5.03;;
9950;SDS011;24074;49.254;6.702;2023-12-22T14:55:01;6.43;;;3.17;;
9950;SDS011;24074;49.254;6.702;2023-12-22T14:57:27;14.17;;;12.77;;
9950;SDS011;24074;49.254;6.702;2023-12-22T14:59:56;9.00;;;6.83;;
9950;SDS011;24074;49.254;6.702;2023-12-22T15:02:21;4.03;;;3.63;;